Sea Voyager — V7QU2 — position and weather

sailwx.info

Track history (hours):
 
Tides and Currents Weather Stations Pressure Air Temp Water Temp Dewpoint Dewpoint Depression Visibility Wind Speed Wind Dir Waves Ship Positions

Sea Voyager

Last reported at 2017-Mar-20 21:18 UTC. Time now 2017-Mar-25 11:29 UTC.
Position N 01°58' E 102°15'.

Length 243 m; draft 12 m.

Type: Ship (hazmat cat A). MMSI: 538003439.

Date/timePositionNaut miles runAvg speedWind from/ knotsBaromVisibWave heightAir tempDewpointWater temp
2017-Mar-20 21:18N 01°58' E 102°15'912.3
2017-Mar-20 20:33N 01°54' E 102°23'2811.8
2017-Mar-20 18:12N 01°42' E 102°48'4512.3
2017-Mar-20 14:33N 01°15' E 103°24'1313.2
2017-Mar-20 13:34N 01°11' E 103°37'1111.4
2017-Mar-20 12:34N 01°10' E 103°48'1212.2
2017-Mar-20 11:33N 01°15' E 103°59'  
2017-Mar-11 08:32N 01°14' E 103°57'2 0.9
2017-Mar-11 06:28N 01°15' E 103°56'0 0.1
2017-Mar-11 05:16N 01°15' E 103°56'0 0.0
2017-Mar-10 23:17N 01°15' E 103°55'0 0.0
2017-Mar-10 21:19N 01°15' E 103°55'  
Track history (hours):
 
Tides and Currents Weather Stations Pressure Air Temp Water Temp Dewpoint Dewpoint Depression Visibility Wind Speed Wind Dir Waves Ship Positions

Sea Voyager

Last reported at 2017-Mar-20 21:18 UTC. Time now 2017-Mar-25 11:29 UTC.
Position N 01°58' E 102°15'.

Length 243 m; draft 12 m.

Type: Ship (hazmat cat A). MMSI: 538003439.

Date/timePositionNaut miles runAvg speedWind from/ knotsBaromVisibWave heightAir tempDewpointWater temp
2017-Mar-20 21:18N 01°58' E 102°15'912.3
2017-Mar-20 20:33N 01°54' E 102°23'2811.8
2017-Mar-20 18:12N 01°42' E 102°48'4512.3
2017-Mar-20 14:33N 01°15' E 103°24'1313.2
2017-Mar-20 13:34N 01°11' E 103°37'1111.4
2017-Mar-20 12:34N 01°10' E 103°48'1212.2
2017-Mar-20 11:33N 01°15' E 103°59'  
2017-Mar-11 08:32N 01°14' E 103°57'2 0.9
2017-Mar-11 06:28N 01°15' E 103°56'0 0.1
2017-Mar-11 05:16N 01°15' E 103°56'0 0.0
2017-Mar-10 23:17N 01°15' E 103°55'0 0.0
2017-Mar-10 21:19N 01°15' E 103°55'  

Dump ship's entire track history